Time;durP1;ratioP1;P1;durP2;ratioP2;P2;SDS_P1;SDS_P2;PMS_P1;PMS_P2;Temp;Humidity;BMP_temperature;BMP_pressure;BME280_temperature;BME280_humidity;BME280_pressure;Samples;Min_cycle;Max_cycle;Signal;HPM_P1;HPM_P2
2021/08/08 00:02:01;;;;;;;2.95;1.50;;;;;;;15.27;94.14;98263.25;5063524;28;20104;-65
2021/08/08 00:04:26;;;;;;;5.25;1.30;;;;;;;15.27;93.86;98268.56;5052062;28;20021;-65
2021/08/08 00:06:52;;;;;;;4.45;1.20;;;;;;;15.30;93.65;98257.81;5056599;28;20027;-65
2021/08/08 00:09:17;;;;;;;5.13;1.77;;;;;;;15.39;93.33;98268.06;5056615;28;20036;-65
2021/08/08 00:11:43;;;;;;;5.63;2.10;;;;;;;15.45;93.28;98273.09;5060153;28;20025;-65
2021/08/08 00:14:08;;;;;;;5.20;1.25;;;;;;;15.44;92.86;98268.69;5070400;28;20025;-65
2021/08/08 00:16:35;;;;;;;8.70;1.65;;;;;;;15.46;92.70;98272.16;5058664;28;20030;-65
2021/08/08 00:19:00;;;;;;;3.17;1.40;;;;;;;15.46;93.06;98279.25;5055067;28;20069;-65
2021/08/08 00:21:26;;;;;;;3.35;1.17;;;;;;;15.45;92.47;98278.41;5053719;28;20383;-65
2021/08/08 00:23:51;;;;;;;3.83;1.30;;;;;;;15.46;92.34;98290.72;5054175;28;20023;-65
2021/08/08 00:26:17;;;;;;;2.65;1.02;;;;;;;15.41;92.46;98282.09;5053522;28;20279;-65
2021/08/08 00:28:44;;;;;;;4.85;1.35;;;;;;;15.41;92.79;98289.22;5053569;28;20329;-65
2021/08/08 00:31:09;;;;;;;5.88;1.45;;;;;;;15.44;92.77;98286.44;5053195;28;20026;-65
2021/08/08 00:33:35;;;;;;;8.50;1.48;;;;;;;15.39;93.19;98283.97;5061196;28;20059;-65
2021/08/08 00:36:01;;;;;;;10.18;1.50;;;;;;;15.38;93.12;98279.59;5062805;28;20021;-65
2021/08/08 00:38:27;;;;;;;5.40;1.27;;;;;;;15.37;93.07;98280.50;5058307;28;20024;-65
2021/08/08 00:40:52;;;;;;;7.35;1.90;;;;;;;15.41;92.76;98279.44;5053558;28;20092;-65
2021/08/08 00:43:18;;;;;;;9.52;1.55;;;;;;;15.38;92.86;98265.47;5054519;28;20220;-65
2021/08/08 00:45:43;;;;;;;7.80;1.83;;;;;;;15.37;92.87;98277.88;5056626;28;20048;-65
2021/08/08 00:48:08;;;;;;;7.15;1.63;;;;;;;15.32;92.98;98276.31;5073306;28;20267;-65
2021/08/08 00:50:34;;;;;;;9.15;1.55;;;;;;;15.26;92.95;98280.09;5054126;28;20025;-65
2021/08/08 00:52:59;;;;;;;5.72;1.73;;;;;;;15.23;92.93;98277.59;5054797;28;20185;-65
2021/08/08 00:55:25;;;;;;;9.70;1.77;;;;;;;15.19;93.16;98281.31;5056676;28;20048;-65
2021/08/08 00:57:50;;;;;;;4.55;1.40;;;;;;;15.16;93.35;98281.44;5053185;28;20023;-65
2021/08/08 01:00:16;;;;;;;2.78;1.50;;;;;;;15.13;93.66;98290.34;5056539;28;20231;-65
2021/08/08 01:02:56;;;;;;;6.50;1.52;;;;;;;15.17;93.46;98288.44;5056284;28;20029;-65
2021/08/08 01:05:28;;;;;;;13.15;1.42;;;;;;;15.19;93.69;98282.16;5054662;28;20306;-65
2021/08/08 01:08:01;;;;;;;5.78;1.30;;;;;;;15.24;93.63;98292.56;5050846;28;20033;-65
2021/08/08 01:10:26;;;;;;;6.43;1.70;;;;;;;15.20;93.43;98277.72;5053217;28;20058;-65
2021/08/08 01:12:55;;;;;;;12.68;1.40;;;;;;;15.30;93.34;98288.78;5055950;28;20095;-65
2021/08/08 01:15:21;;;;;;;5.72;1.50;;;;;;;15.31;92.95;98282.56;5046229;28;20035;-65
2021/08/08 01:17:47;;;;;;;8.65;1.17;;;;;;;15.25;93.27;98278.34;5057183;28;20017;-65
2021/08/08 01:20:13;;;;;;;9.20;1.70;;;;;;;15.23;93.37;98288.19;5045689;28;20025;-65
2021/08/08 01:22:49;;;;;;;4.95;1.50;;;;;;;15.20;93.41;98285.66;5044306;28;20013;-65
2021/08/08 01:25:15;;;;;;;7.38;1.60;;;;;;;15.29;92.92;98282.63;5045782;28;20048;-65
2021/08/08 01:27:41;;;;;;;3.88;1.00;;;;;;;15.31;92.47;98278.09;5051725;28;20021;-65
2021/08/08 01:30:09;;;;;;;7.50;1.20;;;;;;;15.29;92.37;98277.31;5062701;28;20037;-65
2021/08/08 01:32:35;;;;;;;7.70;1.48;;;;;;;15.32;92.85;98274.53;5060616;28;20020;-65
2021/08/08 01:35:01;;;;;;;8.57;1.50;;;;;;;15.31;92.50;98286.06;5052282;28;20021;-65
2021/08/08 01:37:29;;;;;;;5.75;1.20;;;;;;;15.34;92.38;98279.78;5054687;28;20024;-65
2021/08/08 01:40:08;;;;;;;3.65;1.23;;;;;;;15.31;92.42;98288.69;5051292;28;20025;-65
2021/08/08 01:42:35;;;;;;;11.13;1.75;;;;;;;15.32;92.15;98295.75;5060124;28;20024;-65
2021/08/08 01:45:03;;;;;;;6.90;1.50;;;;;;;15.22;92.57;98281.13;5051810;28;20025;-65
2021/08/08 01:47:32;;;;;;;6.63;1.50;;;;;;;15.16;92.48;98287.56;5058010;28;20316;-65
2021/08/08 01:49:58;;;;;;;11.93;1.60;;;;;;;15.11;92.82;98276.31;5055356;28;20020;-65
2021/08/08 01:52:25;;;;;;;10.82;2.38;;;;;;;15.17;92.60;98283.16;5063107;28;20063;-65
2021/08/08 01:54:52;;;;;;;6.75;1.40;;;;;;;15.07;92.32;98276.53;5052559;28;20088;-65
2021/08/08 01:57:18;;;;;;;5.00;1.83;;;;;;;14.97;92.61;98275.19;5046380;28;20024;-65
2021/08/08 01:59:44;;;;;;;13.98;2.05;;;;;;;15.07;92.78;98277.38;5066312;28;20017;-65
2021/08/08 02:02:10;;;;;;;9.35;1.45;;;;;;;15.00;92.83;98275.06;5062849;28;20013;-65
2021/08/08 02:04:35;;;;;;;1.95;1.13;;;;;;;15.06;92.78;98274.78;5051804;28;20028;-65
2021/08/08 02:07:01;;;;;;;7.93;2.10;;;;;;;15.11;92.43;98272.81;5051933;28;20021;-65
2021/08/08 02:09:26;;;;;;;8.98;1.58;;;;;;;15.09;92.31;98279.94;5053157;28;20036;-65
2021/08/08 02:11:52;;;;;;;5.95;1.50;;;;;;;15.10;92.15;98279.03;5052119;28;20017;-65
2021/08/08 02:14:17;;;;;;;5.55;1.45;;;;;;;15.02;91.83;98267.91;5054065;28;20021;-65
2021/08/08 02:16:43;;;;;;;8.82;1.67;;;;;;;14.97;92.31;98276.03;5054952;28;20037;-65
2021/08/08 02:19:08;;;;;;;4.70;2.20;;;;;;;14.89;92.35;98272.88;5051867;28;20014;-65
2021/08/08 02:21:34;;;;;;;4.60;1.52;;;;;;;14.82;92.52;98271.41;5054562;28;20020;-65
2021/08/08 02:23:59;;;;;;;8.43;1.48;;;;;;;14.82;92.35;98274.06;5053797;28;20052;-65
2021/08/08 02:26:24;;;;;;;7.93;1.55;;;;;;;14.75;92.62;98285.81;5057556;28;20017;-65
2021/08/08 02:28:50;;;;;;;4.88;1.45;;;;;;;14.75;92.82;98287.63;5058126;28;20021;-65
2021/08/08 02:31:17;;;;;;;8.27;1.58;;;;;;;14.66;92.92;98280.03;5055130;28;20320;-65
2021/08/08 02:33:44;;;;;;;8.50;1.88;;;;;;;14.64;93.12;98282.75;5055286;28;20212;-65
2021/08/08 02:36:09;;;;;;;3.63;1.55;;;;;;;14.72;93.13;98291.22;5067747;28;20013;-65
2021/08/08 02:38:35;;;;;;;17.17;2.30;;;;;;;14.67;93.30;98279.97;5059943;28;20019;-65
2021/08/08 02:41:01;;;;;;;10.13;1.92;;;;;;;14.66;93.18;98275.63;5050938;28;20025;-65
2021/08/08 02:43:26;;;;;;;5.28;1.63;;;;;;;14.65;92.49;98273.03;5069799;28;20043;-65
2021/08/08 02:45:52;;;;;;;9.43;2.20;;;;;;;14.64;92.67;98282.75;5060977;28;20055;-65
2021/08/08 02:48:18;;;;;;;8.55;1.80;;;;;;;14.61;93.09;98282.88;5055917;28;20022;-65
2021/08/08 02:50:43;;;;;;;9.48;2.08;;;;;;;14.58;92.82;98282.13;5057280;28;20072;-65
2021/08/08 02:53:10;;;;;;;5.70;1.63;;;;;;;14.49;92.90;98278.06;5056269;28;20017;-65
2021/08/08 02:55:35;;;;;;;6.30;1.65;;;;;;;14.40;93.13;98278.44;5056600;28;20031;-65
2021/08/08 02:58:00;;;;;;;11.77;2.15;;;;;;;14.35;93.77;98284.84;5056335;28;20017;-65
2021/08/08 03:00:26;;;;;;;5.88;2.08;;;;;;;14.28;93.82;98325.72;5058888;28;20040;-65
2021/08/08 03:02:51;;;;;;;7.97;2.58;;;;;;;14.26;93.64;98301.97;5066464;28;20053;-65
2021/08/08 03:05:17;;;;;;;11.73;2.05;;;;;;;14.22;94.21;98297.69;5057625;28;20091;-65
2021/08/08 03:07:42;;;;;;;5.43;2.05;;;;;;;14.20;94.43;98296.88;5061806;28;20088;-65
2021/08/08 03:10:09;;;;;;;6.03;1.80;;;;;;;14.17;94.49;98306.69;5051659;28;20028;-65
2021/08/08 03:12:35;;;;;;;8.30;1.90;;;;;;;14.15;94.66;98293.56;5056437;28;20044;-65
2021/08/08 03:15:00;;;;;;;7.32;1.95;;;;;;;14.15;94.84;98300.63;5055503;28;20064;-65
2021/08/08 03:17:26;;;;;;;5.60;1.90;;;;;;;14.19;94.97;98304.88;5055785;28;20025;-65
2021/08/08 03:19:51;;;;;;;6.55;2.47;;;;;;;14.19;95.10;98300.44;5055319;28;20017;-65
2021/08/08 03:22:17;;;;;;;6.18;2.10;;;;;;;14.26;95.16;98314.31;5053777;28;20028;-65
2021/08/08 03:24:42;;;;;;;6.13;2.15;;;;;;;14.25;94.88;98309.97;5066435;28;20051;-65
2021/08/08 03:27:09;;;;;;;10.27;2.25;;;;;;;14.25;94.97;98318.78;5061640;28;20013;-65
2021/08/08 03:29:34;;;;;;;11.15;2.80;;;;;;;14.26;94.98;98317.84;5057696;28;20025;-65
2021/08/08 03:32:00;;;;;;;9.25;2.22;;;;;;;14.29;94.90;98324.78;5054698;28;20016;-65
2021/08/08 03:34:25;;;;;;;8.38;1.73;;;;;;;14.32;95.07;98324.69;5053262;28;20022;-65
2021/08/08 03:36:51;;;;;;;7.38;1.90;;;;;;;14.27;94.86;98329.31;5052006;28;20032;-65
2021/08/08 03:39:20;;;;;;;11.35;2.17;;;;;;;14.22;94.73;98331.22;5075402;28;20017;-65
2021/08/08 03:41:45;;;;;;;10.38;2.08;;;;;;;14.27;95.24;98335.44;5053220;28;20013;-65
2021/08/08 03:44:11;;;;;;;9.45;2.05;;;;;;;14.21;94.71;98324.22;5056041;28;20080;-65
2021/08/08 03:46:36;;;;;;;8.27;1.88;;;;;;;14.12;94.70;98325.44;5046385;28;20013;-65
2021/08/08 03:49:01;;;;;;;6.07;2.35;;;;;;;14.21;94.82;98330.34;5046612;28;20045;-65
2021/08/08 03:51:27;;;;;;;7.25;2.15;;;;;;;14.17;95.09;98336.69;5065584;28;20016;-65
2021/08/08 03:53:52;;;;;;;12.32;2.00;;;;;;;14.11;94.78;98330.78;5064123;28;20043;-65
2021/08/08 03:56:18;;;;;;;6.57;1.88;;;;;;;14.14;94.62;98341.25;5054489;28;20228;-65
2021/08/08 03:58:43;;;;;;;7.88;2.00;;;;;;;14.10;94.54;98347.56;5058337;28;20075;-65
2021/08/08 04:01:08;;;;;;;11.20;2.13;;;;;;;14.06;94.37;98340.66;5052502;28;20078;-65
2021/08/08 04:03:35;;;;;;;9.00;2.22;;;;;;;14.05;94.97;98344.25;5055224;28;20021;-65
2021/08/08 04:06:01;;;;;;;8.85;2.10;;;;;;;14.03;94.83;98335.50;5054822;28;20044;-65
2021/08/08 04:08:26;;;;;;;9.73;2.30;;;;;;;14.08;94.82;98346.78;5054526;28;20060;-65
2021/08/08 04:10:52;;;;;;;11.70;2.47;;;;;;;14.11;94.37;98352.81;5054063;28;20020;-65
2021/08/08 04:13:18;;;;;;;8.38;1.70;;;;;;;14.16;94.21;98352.63;5056680;28;20025;-65
2021/08/08 04:15:43;;;;;;;11.75;2.70;;;;;;;14.14;94.37;98347.38;5056494;28;20013;-65
2021/08/08 04:18:11;;;;;;;9.95;2.78;;;;;;;14.13;93.97;98358.03;5053491;28;20016;-65
2021/08/08 04:20:37;;;;;;;8.02;2.10;;;;;;;14.10;94.22;98352.84;5060192;28;20024;-65
2021/08/08 04:23:02;;;;;;;11.63;2.63;;;;;;;14.20;94.73;98359.53;5059806;28;20056;-65
2021/08/08 04:25:28;;;;;;;18.05;2.10;;;;;;;14.18;94.41;98366.69;5058321;28;20043;-65
2021/08/08 04:27:53;;;;;;;8.35;2.20;;;;;;;14.25;94.69;98437.91;5054974;28;20020;-65
2021/08/08 04:30:19;;;;;;;11.15;3.15;;;;;;;14.33;94.03;98450.84;5056282;28;20018;-65
2021/08/08 04:32:44;;;;;;;9.88;1.92;;;;;;;14.29;93.83;98443.94;5061451;28;20021;-65
2021/08/08 04:35:10;;;;;;;11.18;2.13;;;;;;;14.28;93.67;98448.38;5062493;28;20013;-65
2021/08/08 04:37:35;;;;;;;9.02;2.20;;;;;;;14.28;93.70;98443.09;5056572;28;20012;-65
2021/08/08 04:40:01;;;;;;;13.38;2.85;;;;;;;14.51;94.57;98444.84;5051443;28;20336;-65
2021/08/08 04:42:26;;;;;;;10.43;3.60;;;;;;;14.55;93.42;98446.44;5054209;28;20263;-65
2021/08/08 04:44:51;;;;;;;5.22;1.90;;;;;;;14.55;93.37;98451.75;5059972;28;20062;-65
2021/08/08 04:47:17;;;;;;;6.80;1.75;;;;;;;14.70;93.73;98461.78;5053650;28;20084;-65
2021/08/08 04:49:42;;;;;;;5.00;1.80;;;;;;;14.70;93.31;98462.66;5056183;28;20017;-65
2021/08/08 04:52:08;;;;;;;9.93;2.40;;;;;;;14.81;92.95;98464.88;5060835;28;20023;-65
2021/08/08 04:54:33;;;;;;;7.75;2.17;;;;;;;14.93;92.64;98467.03;5063342;28;20016;-65
2021/08/08 04:56:58;;;;;;;8.63;2.05;;;;;;;15.03;92.13;98466.63;5054008;28;20083;-65
2021/08/08 04:59:24;;;;;;;10.23;3.00;;;;;;;15.02;92.40;98469.31;5055491;28;20340;-65
2021/08/08 05:01:49;;;;;;;12.52;2.45;;;;;;;15.04;92.14;98470.97;5056471;28;20036;-65
2021/08/08 05:04:15;;;;;;;10.65;2.03;;;;;;;15.09;92.33;98476.09;5053813;28;20208;-65
2021/08/08 05:06:40;;;;;;;7.28;1.65;;;;;;;15.09;92.29;98468.16;5058598;28;20029;-65
2021/08/08 05:09:05;;;;;;;10.60;1.73;;;;;;;15.10;92.02;98462.78;5072070;28;20038;-65
2021/08/08 05:11:32;;;;;;;6.95;1.83;;;;;;;15.05;91.66;98458.59;5056123;28;20204;-65
2021/08/08 05:13:59;;;;;;;10.90;2.00;;;;;;;15.15;91.49;98460.84;5058101;28;20052;-65
2021/08/08 05:16:24;;;;;;;4.72;1.70;;;;;;;15.03;91.26;98460.47;5053633;28;20036;-65
2021/08/08 05:18:50;;;;;;;6.70;1.60;;;;;;;15.48;90.55;98477.19;5053178;28;20028;-65
2021/08/08 05:21:15;;;;;;;10.65;2.35;;;;;;;15.71;89.41;98477.09;5053664;28;20023;-65
2021/08/08 05:23:40;;;;;;;8.95;1.92;;;;;;;15.98;88.29;98497.13;5055946;28;20383;-65
2021/08/08 05:26:06;;;;;;;6.03;1.60;;;;;;;16.79;84.89;98504.13;5057059;28;20029;-65
2021/08/08 05:28:31;;;;;;;9.25;1.77;;;;;;;17.61;83.13;98516.16;5053663;28;20024;-65
2021/08/08 05:30:57;;;;;;;6.63;1.95;;;;;;;18.01;80.47;98505.25;5057689;28;20012;-65
2021/08/08 05:33:23;;;;;;;8.40;1.70;;;;;;;18.65;78.33;98466.31;5055924;28;20239;-65
2021/08/08 05:35:51;;;;;;;8.00;1.67;;;;;;;18.07;79.05;98449.00;5057368;28;20025;-65
2021/08/08 05:38:16;;;;;;;12.48;1.60;;;;;;;18.18;79.21;98446.63;5054254;28;20045;-65
2021/08/08 05:40:41;;;;;;;9.48;1.55;;;;;;;17.70;80.13;98435.84;5058252;28;20035;-65
2021/08/08 05:43:07;;;;;;;5.68;1.55;;;;;;;17.42;80.62;98430.16;5053159;28;20096;-65
2021/08/08 05:45:32;;;;;;;8.18;2.10;;;;;;;17.21;81.49;98419.66;5052856;28;20216;-65
2021/08/08 05:47:58;;;;;;;7.43;1.80;;;;;;;17.50;81.64;98433.34;5055317;28;20017;-65
2021/08/08 05:50:23;;;;;;;10.25;1.95;;;;;;;17.57;81.25;98430.31;5052094;28;20013;-65
2021/08/08 05:52:50;;;;;;;10.40;1.70;;;;;;;17.68;81.13;98437.75;5064791;28;20021;-65
2021/08/08 05:55:17;;;;;;;8.45;1.70;;;;;;;17.40;80.96;98432.06;5055166;28;20096;-65
2021/08/08 05:57:42;;;;;;;7.53;2.20;;;;;;;17.27;80.92;98436.25;5058408;28;20015;-65
2021/08/08 06:00:08;;;;;;;9.75;2.25;;;;;;;16.93;81.89;98431.72;5053461;28;20040;-65
2021/08/08 06:02:34;;;;;;;21.77;3.15;;;;;;;16.76;83.83;98439.59;5048483;28;20020;-65
2021/08/08 06:04:59;;;;;;;9.30;2.42;;;;;;;16.54;84.32;98434.44;5067619;28;20013;-65
2021/08/08 06:07:24;;;;;;;7.60;2.38;;;;;;;16.52;84.97;98433.63;5066274;28;20013;-65
2021/08/08 06:09:50;;;;;;;12.80;2.58;;;;;;;16.51;84.69;98429.25;5064125;28;20075;-65
2021/08/08 06:12:15;;;;;;;16.30;2.70;;;;;;;16.49;83.73;98431.13;5058076;28;20017;-65
2021/08/08 06:14:41;;;;;;;11.43;2.53;;;;;;;16.57;84.73;98444.91;5058003;28;20017;-65
2021/08/08 06:17:06;;;;;;;12.80;2.85;;;;;;;16.63;83.22;98442.00;5063720;28;20212;-65
2021/08/08 06:19:32;;;;;;;9.32;2.15;;;;;;;16.95;82.07;98457.28;5063016;28;20056;-65
2021/08/08 06:21:57;;;;;;;7.80;2.13;;;;;;;16.87;81.57;98446.13;5063612;28;20220;-65
2021/08/08 06:24:23;;;;;;;13.05;2.92;;;;;;;16.87;82.69;98456.75;5058524;28;20012;-65
2021/08/08 06:26:48;;;;;;;14.52;2.65;;;;;;;17.07;81.01;98456.69;5063294;28;20021;-65
2021/08/08 06:29:14;;;;;;;18.13;2.78;;;;;;;17.14;81.79;98457.25;5052015;28;20064;-65
2021/08/08 06:31:39;;;;;;;12.77;2.50;;;;;;;17.81;79.54;98471.63;5058666;28;20024;-65
2021/08/08 06:34:05;;;;;;;16.35;3.40;;;;;;;18.63;76.84;98478.84;5060372;28;20049;-65
2021/08/08 06:36:31;;;;;;;13.30;2.80;;;;;;;18.95;75.40;98469.94;5058536;28;20020;-65
2021/08/08 06:38:58;;;;;;;11.45;2.60;;;;;;;18.83;76.51;98471.50;5047846;28;20013;-65
2021/08/08 06:41:24;;;;;;;8.60;2.45;;;;;;;18.47;75.99;98454.84;5065261;28;20032;-65
2021/08/08 06:43:50;;;;;;;11.40;2.67;;;;;;;18.36;75.01;98453.66;5060806;28;20028;-65
2021/08/08 06:46:15;;;;;;;7.13;2.40;;;;;;;19.36;72.99;98484.53;5058361;28;20021;-65
2021/08/08 06:48:41;;;;;;;7.75;2.42;;;;;;;18.56;74.75;98458.81;5061737;28;20016;-65
2021/08/08 06:51:06;;;;;;;14.73;2.50;;;;;;;18.35;75.49;98452.78;5061978;28;20025;-65
2021/08/08 06:53:31;;;;;;;10.95;2.30;;;;;;;18.03;75.87;98460.78;5058336;28;20099;-65
2021/08/08 06:56:00;;;;;;;8.00;2.50;;;;;;;18.64;75.46;98485.94;5055987;28;20021;-65
2021/08/08 06:58:26;;;;;;;15.30;2.35;;;;;;;19.08;74.14;98487.03;5059890;28;20017;-65
2021/08/08 07:00:51;;;;;;;9.23;2.60;;;;;;;20.31;71.05;98501.16;5056449;28;20099;-65
2021/08/08 07:03:16;;;;;;;13.32;2.70;;;;;;;20.84;68.91;98506.75;5057410;28;20028;-65
2021/08/08 07:05:42;;;;;;;10.70;2.40;;;;;;;21.83;65.50;98530.72;5058066;28;20235;-66
2021/08/08 07:08:09;;;;;;;9.15;2.30;;;;;;;21.82;64.24;98507.53;5053575;28;20332;-66
2021/08/08 07:10:34;;;;;;;9.57;2.00;;;;;;;22.82;63.62;98529.22;5072562;28;20244;-66
2021/08/08 07:12:59;;;;;;;10.85;2.63;;;;;;;22.13;61.65;98513.44;5058191;28;20037;-66
2021/08/08 07:15:25;;;;;;;7.47;2.10;;;;;;;21.44;63.30;98501.13;5049927;28;20032;-66
2021/08/08 07:17:50;;;;;;;9.82;2.30;;;;;;;21.86;63.47;98503.72;5052725;28;20018;-66
2021/08/08 07:20:16;;;;;;;6.13;2.00;;;;;;;21.96;62.64;98499.47;5055842;28;20088;-66
2021/08/08 07:22:41;;;;;;;7.18;2.25;;;;;;;20.45;67.17;98463.75;5050930;28;20021;-66
2021/08/08 07:25:08;;;;;;;11.18;2.42;;;;;;;20.23;66.63;98460.66;5053283;28;20084;-66
2021/08/08 07:27:33;;;;;;;8.80;1.85;;;;;;;19.89;65.43;98455.59;5050717;28;20092;-66
2021/08/08 07:29:59;;;;;;;12.90;2.38;;;;;;;19.49;67.47;98461.53;5059769;28;20263;-66
2021/08/08 07:32:25;;;;;;;9.43;2.30;;;;;;;19.44;71.80;98468.09;5055424;28;20025;-65
2021/08/08 07:34:51;;;;;;;9.07;2.28;;;;;;;18.95;70.55;98454.81;5054107;28;20306;-66
2021/08/08 07:37:16;;;;;;;8.93;2.30;;;;;;;19.20;71.07;98465.84;5054639;28;20025;-66
2021/08/08 07:39:42;;;;;;;9.85;2.30;;;;;;;18.94;70.13;98457.56;5065782;28;20020;-66
2021/08/08 07:42:08;;;;;;;10.27;2.08;;;;;;;18.66;71.71;98446.69;5058707;28;20028;-66
2021/08/08 07:44:33;;;;;;;8.45;2.00;;;;;;;19.44;70.18;98468.97;5059530;28;20049;-66
2021/08/08 07:46:58;;;;;;;13.80;2.40;;;;;;;19.25;70.63;98458.44;5059544;28;20016;-66
2021/08/08 07:49:24;;;;;;;10.60;1.90;;;;;;;19.42;70.00;98470.84;5060319;28;20251;-66
2021/08/08 07:51:50;;;;;;;11.35;2.47;;;;;;;19.55;70.57;98476.34;5055654;28;20328;-66
2021/08/08 07:54:17;;;;;;;14.75;2.33;;;;;;;19.36;71.01;98476.53;5046808;28;20025;-66
2021/08/08 07:56:42;;;;;;;8.48;2.03;;;;;;;19.39;69.28;98479.03;5056762;28;20033;-66
2021/08/08 07:59:08;;;;;;;8.48;2.13;;;;;;;19.88;69.57;98496.63;5049333;28;20056;-66
2021/08/08 08:01:33;;;;;;;9.40;2.20;;;;;;;20.78;66.55;98512.47;5053939;28;20041;-66
2021/08/08 08:03:59;;;;;;;8.32;2.00;;;;;;;20.12;68.20;98495.19;5065204;28;20084;-66
2021/08/08 08:06:24;;;;;;;10.70;1.95;;;;;;;19.68;69.20;98483.53;5055941;28;20025;-67
2021/08/08 08:08:50;;;;;;;9.90;2.67;;;;;;;20.15;69.34;98500.34;5059704;28;20021;-65
2021/08/08 08:11:17;;;;;;;11.27;2.10;;;;;;;19.76;69.19;98477.75;5060650;28;20028;-65
2021/08/08 08:13:42;;;;;;;11.35;2.50;;;;;;;19.30;71.13;98476.88;5052256;28;20036;-66
2021/08/08 08:16:08;;;;;;;8.95;2.00;;;;;;;19.06;71.50;98484.44;5050731;28;20025;-66
2021/08/08 08:18:33;;;;;;;9.57;2.45;;;;;;;18.88;72.33;98484.56;5049469;28;20084;-66
2021/08/08 08:20:59;;;;;;;11.15;2.25;;;;;;;18.81;72.35;98493.88;5047870;28;20040;-66
2021/08/08 08:23:25;;;;;;;13.45;2.20;;;;;;;18.69;72.65;98489.19;5051133;28;20023;-66
2021/08/08 08:25:50;;;;;;;9.88;2.30;;;;;;;18.63;71.76;98487.72;5053952;28;20025;-66
2021/08/08 08:28:15;;;;;;;10.43;2.63;;;;;;;18.92;70.31;98497.66;5064354;28;20064;-66
2021/08/08 08:30:41;;;;;;;11.02;2.40;;;;;;;19.13;70.63;98506.28;5064800;28;20027;-66
2021/08/08 08:33:06;;;;;;;8.20;2.00;;;;;;;18.78;69.99;98494.03;5059659;28;20216;-66
2021/08/08 08:35:32;;;;;;;8.98;2.55;;;;;;;18.77;71.01;98492.31;5060869;28;20032;-66
2021/08/08 08:37:58;;;;;;;11.35;2.17;;;;;;;18.75;71.00;98494.19;5059758;28;20243;-66
2021/08/08 08:40:24;;;;;;;15.32;3.05;;;;;;;18.76;71.28;98490.56;5058436;28;20025;-66
2021/08/08 08:42:50;;;;;;;13.73;2.70;;;;;;;19.01;70.10;98490.97;5050104;28;20316;-65
2021/08/08 08:45:17;;;;;;;8.88;2.10;;;;;;;19.30;68.71;98508.91;5049370;28;20224;-65
2021/08/08 08:47:44;;;;;;;10.32;2.83;;;;;;;19.37;69.86;98509.44;5048263;28;20032;-65
2021/08/08 08:50:11;;;;;;;9.15;2.47;;;;;;;19.46;69.10;98499.13;5048800;28;20025;-66
2021/08/08 08:52:37;;;;;;;8.05;3.28;;;;;;;19.31;69.72;98493.75;5061010;28;20021;-66
2021/08/08 08:55:03;;;;;;;9.82;2.30;;;;;;;19.63;67.96;98506.13;5060311;28;20040;-66
2021/08/08 08:57:29;;;;;;;12.73;2.42;;;;;;;19.70;70.05;98507.50;5060447;28;20021;-66
2021/08/08 08:59:55;;;;;;;12.02;2.30;;;;;;;19.80;67.93;98504.22;5056885;28;20016;-66
2021/08/08 09:02:20;;;;;;;15.07;2.92;;;;;;;19.88;68.43;98512.66;5047852;28;20021;-66
2021/08/08 09:04:46;;;;;;;9.60;2.35;;;;;;;19.60;67.96;98511.66;5051409;28;20409;-66
2021/08/08 09:07:11;;;;;;;9.82;2.40;;;;;;;19.61;68.41;98508.88;5057471;28;20021;-66
2021/08/08 09:09:38;;;;;;;9.25;2.50;;;;;;;19.80;68.74;98509.56;5056920;28;20219;-66
2021/08/08 09:12:04;;;;;;;9.55;2.67;;;;;;;20.65;66.89;98524.88;5060172;28;20047;-66
2021/08/08 09:14:33;;;;;;;9.75;2.38;;;;;;;20.75;64.70;98523.38;5061395;28;20024;-66
2021/08/08 09:16:58;;;;;;;12.52;2.70;;;;;;;20.87;65.13;98517.25;5058645;28;20041;-66
2021/08/08 09:19:27;;;;;;;10.63;2.15;;;;;;;20.61;64.34;98504.66;5061214;28;20028;-66
2021/08/08 09:21:53;;;;;;;8.15;2.38;;;;;;;21.02;63.17;98513.66;5060805;28;20016;-66
2021/08/08 09:24:24;;;;;;;12.43;2.40;;;;;;;21.09;61.39;98512.31;5059694;28;20082;-66
2021/08/08 09:26:59;;;;;;;12.88;3.30;;;;;;;21.02;63.71;98505.63;5059165;28;20020;-66
2021/08/08 09:29:24;;;;;;;7.88;2.03;;;;;;;21.09;63.75;98506.97;5048201;28;20013;-66
2021/08/08 09:31:50;;;;;;;11.82;2.17;;;;;;;21.29;63.61;98511.88;5054613;28;20312;-66
2021/08/08 09:34:39;;;;;;;9.95;2.22;;;;;;;20.95;62.14;98498.09;5060144;28;20062;-66
2021/08/08 09:37:17;;;;;;;12.00;2.15;;;;;;;20.85;63.61;98505.78;5057749;28;20251;-66
2021/08/08 09:39:43;;;;;;;14.10;2.90;;;;;;;20.60;63.79;98492.19;5057720;28;20243;-66
2021/08/08 09:42:11;;;;;;;14.75;2.85;;;;;;;20.51;64.69;98492.78;5044907;28;20220;-66
2021/08/08 09:44:38;;;;;;;9.38;2.70;;;;;;;20.66;64.77;98491.81;5045746;28;20021;-66
2021/08/08 09:47:04;;;;;;;16.38;2.92;;;;;;;20.93;64.31;98508.84;5052035;28;20207;-66
2021/08/08 09:49:30;;;;;;;15.77;3.30;;;;;;;21.71;62.27;98531.50;5047409;28;20208;-66
2021/08/08 09:51:55;;;;;;;15.57;3.65;;;;;;;23.03;60.16;98554.53;5052095;28;20066;-66
2021/08/08 09:54:21;;;;;;;11.93;2.75;;;;;;;22.25;59.75;98535.88;5047316;28;20029;-66
2021/08/08 09:56:57;;;;;;;12.68;3.15;;;;;;;22.45;60.05;98532.69;5048651;28;20026;-66
2021/08/08 09:59:23;;;;;;;12.02;2.83;;;;;;;23.36;58.21;98549.50;5050234;28;20045;-66
2021/08/08 10:01:48;;;;;;;9.73;2.72;;;;;;;23.23;56.66;98536.06;5053649;28;20063;-66
2021/08/08 10:04:14;;;;;;;12.27;2.40;;;;;;;22.77;58.29;98526.00;5045409;28;20316;-66
2021/08/08 10:06:40;;;;;;;9.52;2.67;;;;;;;21.95;60.43;98578.13;5046881;28;20017;-66
2021/08/08 10:09:10;;;;;;;11.90;3.08;;;;;;;21.41;61.86;98560.28;5047256;28;20026;-66
2021/08/08 10:11:36;;;;;;;9.13;2.30;;;;;;;21.15;64.46;98554.75;5056940;28;20017;-66
2021/08/08 10:14:02;;;;;;;7.93;2.50;;;;;;;21.13;62.93;98551.31;5057290;28;20075;-66
2021/08/08 10:16:35;;;;;;;13.75;3.67;;;;;;;21.43;63.59;98537.78;5057492;28;20013;-66
2021/08/08 10:19:02;;;;;;;11.30;2.65;;;;;;;21.33;62.96;98532.16;5054689;28;20068;-66
2021/08/08 10:21:32;;;;;;;13.88;3.05;;;;;;;21.28;64.53;98533.41;5058129;28;20025;-66
2021/08/08 10:24:03;;;;;;;9.63;2.95;;;;;;;20.97;64.38;98530.94;5048159;28;20017;-66
2021/08/08 10:26:30;;;;;;;7.97;2.23;;;;;;;20.61;61.52;98520.69;5046829;28;20070;-66
2021/08/08 10:28:57;;;;;;;14.05;2.75;;;;;;;20.82;61.68;98524.69;5046143;28;20124;-66
2021/08/08 10:31:24;;;;;;;8.07;2.30;;;;;;;20.78;63.13;98523.19;5047162;28;20024;-66
2021/08/08 10:33:55;;;;;;;9.93;2.15;;;;;;;20.99;64.19;98529.91;5053090;28;20025;-66
2021/08/08 10:36:22;;;;;;;12.48;2.80;;;;;;;20.70;64.19;98520.13;5048739;28;20228;-65
2021/08/08 10:38:49;;;;;;;14.93;2.00;;;;;;;20.74;63.63;98516.31;5050334;28;20013;-65
2021/08/08 10:41:15;;;;;;;7.93;2.63;;;;;;;21.00;65.14;98518.25;5051724;28;20081;-66
2021/08/08 10:43:46;;;;;;;7.60;2.30;;;;;;;21.58;62.15;98533.25;5049983;28;20019;-66
2021/08/08 10:46:15;;;;;;;11.98;2.70;;;;;;;21.97;62.89;98534.22;5055267;28;20021;-66
2021/08/08 10:48:43;;;;;;;7.47;2.58;;;;;;;21.68;63.08;98515.63;5058515;28;20028;-66
2021/08/08 10:51:21;;;;;;;13.48;3.03;;;;;;;21.85;61.70;98523.44;5061505;28;20020;-66
2021/08/08 10:53:59;;;;;;;13.68;3.28;;;;;;;22.26;60.67;98518.81;5057222;28;20294;-66
2021/08/08 10:56:37;;;;;;;10.52;3.13;;;;;;;22.80;59.39;98531.16;5060956;28;20235;-66
2021/08/08 10:59:16;;;;;;;13.63;3.22;;;;;;;23.49;58.96;98531.53;5048583;28;20020;-66
2021/08/08 11:01:42;;;;;;;14.88;3.08;;;;;;;23.54;57.00;98518.59;5048271;28;20107;-66
2021/08/08 11:04:08;;;;;;;12.40;2.80;;;;;;;24.08;55.25;98536.03;5049545;28;20291;-66
2021/08/08 11:06:34;;;;;;;10.05;2.35;;;;;;;24.32;55.25;98531.50;5048380;28;20033;-66
2021/08/08 11:09:01;;;;;;;9.57;2.28;;;;;;;23.79;56.77;98513.13;5050276;28;20332;-66
2021/08/08 11:11:29;;;;;;;12.10;2.67;;;;;;;23.56;55.88;98505.91;5050332;28;20307;-66
2021/08/08 11:14:16;;;;;;;17.73;2.50;;;;;;;23.14;55.14;98496.44;5064690;28;20163;-66
2021/08/08 11:16:57;;;;;;;8.00;2.33;;;;;;;23.33;53.26;98506.75;5061752;28;20017;-66
2021/08/08 11:19:40;;;;;;;10.48;2.75;;;;;;;22.85;58.47;98480.69;5051556;28;20028;-66
2021/08/08 11:22:19;;;;;;;8.35;2.90;;;;;;;22.58;56.96;98477.25;5072948;28;20017;-66
2021/08/08 11:24:56;;;;;;;12.00;3.20;;;;;;;22.08;60.74;98478.03;5049123;28;20316;-66
2021/08/08 11:27:34;;;;;;;10.77;2.90;;;;;;;23.15;58.63;98525.00;5051177;28;20032;-66